Terminal Aerodrome Forecast
Issued by NWS

Home | Current Version | Previous Version | Text Only | Print | Product List | Glossary On
Versions: 1 2 3 4 5 6 7 8 9 10 11 12 13 14 15
000
FTUS44 KEWX 311120
TAFSSF
TAF
KSSF 311120Z 3112/0112 17006KT P6SM SCT020 SCT070
      TEMPO 3112/3114 BKN012
     FM010800 15005KT P6SM BKN015=

USA.gov is the U.S. government's official web portal to all federal, state and local government web resources and services.